createdAt,value
2023-03-17T06:41:17.488Z,35.30
2023-03-17T06:42:20.507Z,35.70
2023-03-17T06:43:24.968Z,35.50
2023-03-17T06:44:27.894Z,32.90
2023-03-17T06:45:33.143Z,31.20
2023-03-17T06:46:36.809Z,26.80
2023-03-17T06:47:39.954Z,30.80
2023-03-17T06:48:43.593Z,31.00
2023-03-17T06:49:46.603Z,31.60
2023-03-17T06:50:50.168Z,32.30
2023-03-17T06:51:53.258Z,35.90
2023-03-17T06:52:56.574Z,31.60
2023-03-17T06:53:59.398Z,34.90
2023-03-17T06:55:02.317Z,29.90
2023-03-17T06:56:05.726Z,28.40
2023-03-17T06:57:09.662Z,29.30
2023-03-17T06:58:13.233Z,33.20
2023-03-17T06:59:16.090Z,31.20
2023-03-17T07:00:20.985Z,30.30
2023-03-17T07:01:24.097Z,29.00
2023-03-17T07:02:27.472Z,27.30
2023-03-17T07:03:31.150Z,25.80
2023-03-17T07:04:37.669Z,25.50
2023-03-17T07:05:40.563Z,25.90
2023-03-17T07:06:43.380Z,26.90
2023-03-17T07:07:46.470Z,24.80
2023-03-17T07:08:50.914Z,27.40
2023-03-17T07:09:54.148Z,24.70
2023-03-17T07:10:57.949Z,24.20
2023-03-17T07:12:05.132Z,27.40
2023-03-17T07:13:08.679Z,28.00
2023-03-17T07:14:11.534Z,30.20
2023-03-17T07:15:14.820Z,26.60
2023-03-17T07:16:19.734Z,26.50
2023-03-17T07:17:22.903Z,28.90
2023-03-17T07:18:26.464Z,27.30
2023-03-17T07:19:31.266Z,29.10
2023-03-17T07:20:34.223Z,26.40
2023-03-17T07:21:37.023Z,24.30
2023-03-17T07:22:40.675Z,24.40
2023-03-17T07:23:43.979Z,27.40
2023-03-17T07:24:49.084Z,27.00
2023-03-17T07:25:52.733Z,23.30
2023-03-17T07:26:55.518Z,28.00
2023-03-17T07:27:58.936Z,24.30
2023-03-17T07:29:01.842Z,26.40
2023-03-17T07:30:05.829Z,25.90
2023-03-17T07:31:09.589Z,27.10
2023-03-17T07:32:13.027Z,25.80
2023-03-17T07:33:17.520Z,25.60
2023-03-17T07:34:20.514Z,29.80
2023-03-17T07:35:23.599Z,26.70
2023-03-17T07:36:26.532Z,26.40
2023-03-17T07:37:29.412Z,26.00
2023-03-17T07:38:32.267Z,27.30
2023-03-17T07:39:35.453Z,26.70
2023-03-17T07:40:39.041Z,29.90
2023-03-17T07:41:44.096Z,26.30
2023-03-17T07:42:47.031Z,27.20
2023-03-17T07:43:50.035Z,26.70
2023-03-17T07:44:53.078Z,29.50
2023-03-17T07:45:56.391Z,27.30
2023-03-17T07:46:59.477Z,29.50
2023-03-17T07:48:05.121Z,30.70
2023-03-17T07:49:09.380Z,25.50
2023-03-17T07:50:12.547Z,27.50
2023-03-17T07:51:19.078Z,34.90
2023-03-17T07:52:21.964Z,28.10
2023-03-17T07:53:25.420Z,29.60
2023-03-17T07:54:29.274Z,26.20
2023-03-17T07:55:33.175Z,29.50
2023-03-17T07:56:36.332Z,28.20
2023-03-17T07:57:40.200Z,29.60
2023-03-17T07:58:43.396Z,27.50
2023-03-17T07:59:46.265Z,29.40
2023-03-17T08:00:49.171Z,27.00
2023-03-17T08:01:53.233Z,26.80
2023-03-17T08:03:09.472Z,28.20
2023-03-17T08:04:14.669Z,27.50
2023-03-17T08:05:18.368Z,27.30
2023-03-17T08:06:21.796Z,28.90
2023-03-17T08:07:24.667Z,25.00
2023-03-17T08:08:28.287Z,27.10
2023-03-17T08:09:32.009Z,24.70
2023-03-17T08:10:35.412Z,29.00
2023-03-17T08:11:39.151Z,25.80
2023-03-17T08:12:42.804Z,29.40
2023-03-17T08:13:45.748Z,26.20
2023-03-17T08:14:48.783Z,27.40
2023-03-17T08:15:52.829Z,28.10
2023-03-17T08:16:55.937Z,27.90
2023-03-17T08:17:59.094Z,24.90
2023-03-17T08:19:04.148Z,27.20
2023-03-17T08:20:07.905Z,28.70
2023-03-17T08:21:10.884Z,26.30
2023-03-17T08:22:13.732Z,27.40
2023-03-17T08:23:18.003Z,25.50
2023-03-17T08:24:20.928Z,24.40
2023-03-17T08:25:24.785Z,26.60
2023-03-17T08:26:27.952Z,26.00
2023-03-17T08:27:33.644Z,24.40
2023-03-17T08:28:37.501Z,25.10
2023-03-17T08:29:40.544Z,26.80
2023-03-17T08:30:44.874Z,25.00
2023-03-17T08:31:47.938Z,24.70
2023-03-17T08:32:51.395Z,25.50
2023-03-17T08:33:56.657Z,26.30
2023-03-17T08:35:00.467Z,25.20
2023-03-17T08:36:09.422Z,27.30
2023-03-17T08:37:12.317Z,27.00
2023-03-17T08:38:15.323Z,25.10
2023-03-17T08:39:19.625Z,27.10
2023-03-17T08:40:23.144Z,24.80
2023-03-17T08:41:27.539Z,25.10
2023-03-17T08:42:30.822Z,25.00
2023-03-17T08:43:34.903Z,26.50
2023-03-17T08:44:37.928Z,26.50
2023-03-17T08:45:40.911Z,29.00
2023-03-17T08:46:43.905Z,24.70
2023-03-17T08:47:47.806Z,28.00
2023-03-17T08:48:52.816Z,26.70
2023-03-17T08:49:56.330Z,25.60
2023-03-17T08:50:59.331Z,24.90
2023-03-17T08:52:03.090Z,25.90
2023-03-17T08:53:05.979Z,26.60
2023-03-17T08:54:08.960Z,21.80
2023-03-17T08:55:13.804Z,25.50
2023-03-17T08:56:17.127Z,23.80
2023-03-17T08:57:20.799Z,22.00
2023-03-17T08:58:24.738Z,21.50
2023-03-17T08:59:27.722Z,24.20
2023-03-17T09:00:30.871Z,23.60
2023-03-17T09:01:34.931Z,23.90
2023-03-17T09:02:39.895Z,21.80
2023-03-17T09:03:43.827Z,23.90
2023-03-17T09:04:47.176Z,22.60
2023-03-17T09:05:51.475Z,22.80
2023-03-17T09:07:03.454Z,23.00
2023-03-17T09:08:07.671Z,19.50
2023-03-17T09:09:11.046Z,22.10
2023-03-17T09:10:14.882Z,20.30
2023-03-17T09:11:20.490Z,23.30
2023-03-17T09:12:23.316Z,21.90
2023-03-17T09:13:26.213Z,20.30
2023-03-17T09:14:31.743Z,20.90
2023-03-17T09:15:37.036Z,21.70
2023-03-17T09:16:40.194Z,19.20
2023-03-17T09:17:43.972Z,20.60
2023-03-17T09:18:46.967Z,22.80
2023-03-17T09:19:49.905Z,23.00
2023-03-17T09:20:53.237Z,23.10
2023-03-17T09:21:56.076Z,24.30
2023-03-17T09:22:59.584Z,22.40
2023-03-17T09:24:02.838Z,21.50
2023-03-17T09:25:06.069Z,23.00
2023-03-17T09:26:10.367Z,23.40
2023-03-17T09:27:13.452Z,26.10
2023-03-17T09:28:17.392Z,24.10
2023-03-17T09:29:20.417Z,25.90
2023-03-17T09:30:23.454Z,24.50
2023-03-17T09:31:26.805Z,24.40
2023-03-17T09:32:29.704Z,23.80
2023-03-17T09:33:32.608Z,25.00
2023-03-17T09:34:35.919Z,22.60
2023-03-17T09:35:40.284Z,20.90
2023-03-17T09:36:43.588Z,21.60
2023-03-17T09:37:48.094Z,21.00
2023-03-17T09:38:51.267Z,20.90
2023-03-17T09:39:54.061Z,23.80
2023-03-17T09:41:23.974Z,22.20
2023-03-17T09:42:27.381Z,24.20
2023-03-17T09:44:05.197Z,22.70
2023-03-17T09:45:17.664Z,21.10
2023-03-17T09:46:36.595Z,20.60
2023-03-17T09:47:48.999Z,19.60
2023-03-17T09:49:10.825Z,18.60
2023-03-17T09:50:19.374Z,18.90
2023-03-17T09:51:22.267Z,19.10
2023-03-17T09:52:30.401Z,19.50
2023-03-17T09:53:46.355Z,19.30
2023-03-17T09:54:50.120Z,20.30
2023-03-17T09:55:57.894Z,21.00
2023-03-17T09:57:12.600Z,22.00
2023-03-17T09:58:28.213Z,20.00
2023-03-17T09:59:38.361Z,20.70
2023-03-17T10:00:41.565Z,21.80
2023-03-17T10:01:44.454Z,21.60
2023-03-17T10:02:48.569Z,19.40
2023-03-17T10:03:51.715Z,20.90
2023-03-17T10:04:55.077Z,21.00
2023-03-17T10:06:13.440Z,20.10
2023-03-17T10:07:23.485Z,19.70
2023-03-17T10:08:32.463Z,19.50
2023-03-17T10:09:46.139Z,19.00
2023-03-17T10:11:15.037Z,19.10
2023-03-17T10:12:45.550Z,18.10
2023-03-17T10:14:03.701Z,19.40
2023-03-17T10:15:19.142Z,22.40
2023-03-17T10:16:34.774Z,21.40
2023-03-17T10:17:42.802Z,22.00
2023-03-17T10:18:58.524Z,21.80
2023-03-17T10:20:34.738Z,25.80
2023-03-17T10:21:48.521Z,20.00
2023-03-17T10:22:58.284Z,19.60
2023-03-17T10:24:04.206Z,21.30
2023-03-17T10:25:17.614Z,20.70
2023-03-17T10:26:43.796Z,19.80
2023-03-17T10:27:55.761Z,18.10
2023-03-17T10:28:59.989Z,18.90
2023-03-17T10:30:04.278Z,21.70
2023-03-17T10:31:30.080Z,19.20
2023-03-17T10:32:37.869Z,19.20
2023-03-17T10:33:40.990Z,18.50
2023-03-17T10:34:44.413Z,21.50
2023-03-17T10:35:47.785Z,18.20
2023-03-17T10:36:55.016Z,20.50
2023-03-17T10:38:13.489Z,18.80
2023-03-17T10:39:20.309Z,21.70
2023-03-17T10:40:30.616Z,16.90
2023-03-17T10:41:36.538Z,19.20
2023-03-17T10:42:53.492Z,15.30
2023-03-17T10:43:57.869Z,17.40
2023-03-17T10:45:29.964Z,18.70
2023-03-17T10:46:33.215Z,19.80
2023-03-17T10:47:44.720Z,19.80
2023-03-17T10:49:13.063Z,18.30
2023-03-17T10:50:23.275Z,17.80
2023-03-17T10:51:35.518Z,19.80
2023-03-17T10:52:42.319Z,14.80
2023-03-17T10:53:52.429Z,20.60
2023-03-17T10:54:55.321Z,14.80
2023-03-17T10:56:06.972Z,18.80
2023-03-17T10:57:14.053Z,19.20
2023-03-17T10:58:29.199Z,16.90
2023-03-17T10:59:39.509Z,17.40
2023-03-17T11:01:05.831Z,18.80
2023-03-17T11:02:24.389Z,17.70
2023-03-17T11:03:34.344Z,20.10
2023-03-17T11:04:42.635Z,17.60
2023-03-17T11:06:05.578Z,19.30
2023-03-17T11:07:19.907Z,17.90
2023-03-17T11:08:23.471Z,15.50
2023-03-17T11:09:30.677Z,18.40
2023-03-17T11:10:38.186Z,15.40
2023-03-17T11:11:47.670Z,16.50
2023-03-17T11:13:00.371Z,15.60
2023-03-17T11:14:10.590Z,14.20
2023-03-17T11:15:17.763Z,16.80
2023-03-17T11:16:24.911Z,14.10
2023-03-17T11:17:51.665Z,15.20
2023-03-17T11:18:58.111Z,15.20
2023-03-17T11:20:19.214Z,13.70
2023-03-17T11:21:32.604Z,17.20
2023-03-17T11:22:41.053Z,12.60
2023-03-17T11:23:55.037Z,16.20
2023-03-17T11:25:23.541Z,16.60
2023-03-17T11:26:54.453Z,18.50
2023-03-17T11:29:39.571Z,18.70
2023-03-17T11:30:54.767Z,15.50
2023-03-17T11:32:18.892Z,12.70
2023-03-17T11:33:42.601Z,19.00
2023-03-17T11:34:59.997Z,17.40
2023-03-17T11:36:15.774Z,20.60
2023-03-17T11:37:48.083Z,15.20
2023-03-17T11:39:22.842Z,17.20
2023-03-17T11:40:36.099Z,11.80
2023-03-17T11:41:51.133Z,19.50
2023-03-17T11:43:15.544Z,15.70
2023-03-17T11:45:00.033Z,15.30
2023-03-17T11:46:11.132Z,11.60
2023-03-17T11:47:20.670Z,14.50
2023-03-17T11:48:44.845Z,17.60
2023-03-17T11:50:07.460Z,15.90
2023-03-17T11:51:30.482Z,16.80
2023-03-17T11:53:01.987Z,15.90
2023-03-17T11:54:15.958Z,14.00
2023-03-17T11:55:34.827Z,16.50
2023-03-17T11:56:54.311Z,18.00
2023-03-17T11:58:02.291Z,14.80
2023-03-17T11:59:12.871Z,15.40
2023-03-17T12:02:15.964Z,17.20
2023-03-17T12:03:38.846Z,16.20
2023-03-17T12:05:05.108Z,18.50
2023-03-17T12:06:26.038Z,16.50
2023-03-17T12:07:51.423Z,14.10
2023-03-17T12:09:07.859Z,19.00
2023-03-17T12:10:18.567Z,19.50
2023-03-17T12:11:28.258Z,16.10
2023-03-17T12:12:38.202Z,17.10
2023-03-17T12:13:49.823Z,17.20
2023-03-17T12:14:54.582Z,17.40
2023-03-17T12:16:06.179Z,17.00
2023-03-17T12:17:21.010Z,15.80
2023-03-17T12:18:31.164Z,17.90
2023-03-17T12:19:44.740Z,16.50
2023-03-17T12:21:01.687Z,16.60
2023-03-17T12:22:20.016Z,16.10
2023-03-17T12:23:40.623Z,18.20
2023-03-17T12:25:02.927Z,17.60
2023-03-17T12:26:12.917Z,16.20
2023-03-17T12:27:23.380Z,16.90
2023-03-17T12:28:37.803Z,18.50
2023-03-17T12:29:47.511Z,15.30
2023-03-17T12:30:57.158Z,16.40
2023-03-17T12:32:35.981Z,18.20
2023-03-17T12:33:58.903Z,15.50
2023-03-17T12:35:32.008Z,20.00
2023-03-17T12:36:36.864Z,16.30
2023-03-17T12:37:40.515Z,16.60
2023-03-17T12:38:57.063Z,15.90
2023-03-17T12:40:20.347Z,17.40
2023-03-17T12:41:26.571Z,15.00
2023-03-17T12:42:52.378Z,15.00
2023-03-17T12:44:26.329Z,19.10
2023-03-17T12:45:41.267Z,21.20
2023-03-17T12:47:23.322Z,19.20
2023-03-17T12:48:54.373Z,20.30
2023-03-17T12:50:44.914Z,18.40
2023-03-17T12:52:06.473Z,19.00
2023-03-17T12:53:21.518Z,18.20
2023-03-17T12:54:33.255Z,15.10
2023-03-17T12:55:36.935Z,15.10
2023-03-17T12:56:46.507Z,15.70
2023-03-17T12:58:02.242Z,17.70
2023-03-17T12:59:08.814Z,16.70
2023-03-17T13:00:28.353Z,18.90
2023-03-17T13:01:33.385Z,18.30
2023-03-17T13:02:38.852Z,20.10
2023-03-17T13:04:01.054Z,17.50
2023-03-17T13:05:14.846Z,16.50
2023-03-17T13:06:21.428Z,18.80
2023-03-17T13:07:27.151Z,16.60
2023-03-17T13:08:33.595Z,19.10
2023-03-17T13:09:44.540Z,17.60
2023-03-17T13:10:50.491Z,14.00
2023-03-17T13:11:54.049Z,14.90
2023-03-17T13:13:07.175Z,20.70
2023-03-17T13:14:27.121Z,15.10
2023-03-17T13:15:51.203Z,14.50
2023-03-17T13:17:05.433Z,17.40
2023-03-17T13:18:13.953Z,17.50
2023-03-17T13:19:31.234Z,16.30
2023-03-17T13:20:41.248Z,17.20
2023-03-17T13:21:49.277Z,16.20
2023-03-17T13:23:15.000Z,16.40
2023-03-17T13:24:21.045Z,15.00
2023-03-17T13:25:31.255Z,15.30
2023-03-17T13:26:53.015Z,17.00
2023-03-17T13:28:12.189Z,16.40
2023-03-17T13:29:25.711Z,14.40
2023-03-17T13:30:29.490Z,15.80
2023-03-17T13:31:36.714Z,17.50
2023-03-17T13:32:39.982Z,16.30
2023-03-17T13:33:53.465Z,19.40
2023-03-17T13:35:02.404Z,14.60
2023-03-17T13:36:42.009Z,12.90
2023-03-17T13:38:14.110Z,16.40
2023-03-17T13:39:30.436Z,17.80
2023-03-17T13:40:53.852Z,14.40
2023-03-17T13:42:17.633Z,16.30
2023-03-17T13:43:33.728Z,14.90
2023-03-17T13:44:52.224Z,14.40
2023-03-17T13:46:15.455Z,13.40
2023-03-17T13:47:34.959Z,14.20
2023-03-17T13:48:38.065Z,14.90
2023-03-17T13:49:41.040Z,17.60
2023-03-17T13:50:43.879Z,15.10
2023-03-17T13:52:10.496Z,15.00
2023-03-17T13:53:14.912Z,14.00
2023-03-17T13:54:34.668Z,15.50
2023-03-17T13:55:42.561Z,15.90
2023-03-17T13:56:45.619Z,16.60
2023-03-17T13:58:16.187Z,13.40
2023-03-17T13:59:32.635Z,13.60
2023-03-17T14:00:41.606Z,15.00
2023-03-17T14:01:55.917Z,17.30
2023-03-17T14:03:10.554Z,15.90
2023-03-17T14:04:20.877Z,13.80
2023-03-17T14:06:37.340Z,19.50
2023-03-17T14:08:01.703Z,16.60
2023-03-17T14:09:16.595Z,18.90
2023-03-17T14:10:23.528Z,14.80
2023-03-17T14:11:35.503Z,16.60
2023-03-17T14:12:56.737Z,12.40
2023-03-17T14:14:26.023Z,13.70
2023-03-17T14:15:47.963Z,17.80
2023-03-17T14:17:02.828Z,15.10
2023-03-17T14:18:16.426Z,15.00
2023-03-17T14:19:27.007Z,16.40
2023-03-17T14:20:30.026Z,15.10
2023-03-17T14:21:33.954Z,16.90
2023-03-17T14:22:45.033Z,15.20
2023-03-17T14:24:00.556Z,13.40
2023-03-17T14:25:03.841Z,19.70
2023-03-17T14:26:10.923Z,14.40
2023-03-17T14:27:15.198Z,15.40
2023-03-17T14:28:24.228Z,14.70
2023-03-17T14:29:32.290Z,16.40
2023-03-17T14:30:36.412Z,14.40
2023-03-17T15:30:21.958Z,17.90
2023-03-17T15:31:28.058Z,14.10
2023-03-17T15:32:31.546Z,14.90
2023-03-17T15:33:36.798Z,16.60
2023-03-17T15:34:38.509Z,14.10
2023-03-17T15:35:40.195Z,15.60
2023-03-17T15:36:43.508Z,14.60
2023-03-17T15:37:45.219Z,15.90
2023-03-17T15:38:46.722Z,15.90
2023-03-17T15:39:49.362Z,16.60
2023-03-17T15:40:50.839Z,15.70
2023-03-17T15:41:52.359Z,14.20
2023-03-17T15:42:53.803Z,13.70
2023-03-17T15:43:56.114Z,15.90
2023-03-17T15:44:59.557Z,14.10
2023-03-17T15:46:07.655Z,15.80
2023-03-17T15:47:15.027Z,15.90
2023-03-17T15:48:24.748Z,17.80
2023-03-17T15:49:27.010Z,17.00
2023-03-17T15:50:31.722Z,15.40
2023-03-17T15:51:33.337Z,17.20
2023-03-17T15:52:34.826Z,17.10
2023-03-17T15:53:36.525Z,13.20
2023-03-17T15:54:38.380Z,17.10
2023-03-17T15:55:40.254Z,15.00
2023-03-17T15:56:42.783Z,15.10
2023-03-17T15:57:53.872Z,20.10
2023-03-17T15:58:56.407Z,15.80
2023-03-17T15:59:57.835Z,12.90
2023-03-17T16:00:59.456Z,13.30
2023-03-17T16:02:01.336Z,18.90
2023-03-17T16:03:16.372Z,14.80
2023-03-17T16:04:18.306Z,16.50
2023-03-17T16:05:25.887Z,15.90
2023-03-17T16:06:27.410Z,19.70
2023-03-17T16:07:30.329Z,16.10
2023-03-17T16:08:31.802Z,14.20
2023-03-17T16:09:34.777Z,20.80
2023-03-17T16:10:36.677Z,17.10
2023-03-17T16:11:40.347Z,16.30
2023-03-17T16:12:42.013Z,18.30
2023-03-17T16:13:43.534Z,13.50
2023-03-17T16:14:45.143Z,14.30
2023-03-17T16:15:54.413Z,19.20
2023-03-17T16:16:56.251Z,15.60
2023-03-17T16:18:00.932Z,18.00
2023-03-17T16:19:05.275Z,18.00
2023-03-17T16:20:18.396Z,18.20
2023-03-17T16:21:20.721Z,15.00
2023-03-17T16:22:36.313Z,13.90
2023-03-17T16:23:37.895Z,16.00
2023-03-17T16:24:39.641Z,18.00
2023-03-17T16:25:41.991Z,14.10
2023-03-17T16:26:43.484Z,19.00
2023-03-17T16:27:45.879Z,16.10
2023-03-17T16:28:48.470Z,16.80
2023-03-17T16:29:49.928Z,18.50
2023-03-17T16:30:53.796Z,16.50
2023-03-17T16:31:55.264Z,16.20
2023-03-17T16:33:01.554Z,16.70
2023-03-17T16:34:03.040Z,15.90
2023-03-17T16:35:13.700Z,16.70
2023-03-17T16:36:17.773Z,17.50
2023-03-17T16:37:19.191Z,18.20
2023-03-17T16:38:23.774Z,16.00
2023-03-17T16:39:25.730Z,14.90
2023-03-17T16:40:33.408Z,16.20
2023-03-17T16:41:34.978Z,17.30
2023-03-17T16:42:36.533Z,17.80
2023-03-17T16:43:42.870Z,18.60
2023-03-17T16:44:44.455Z,15.30
2023-03-17T16:45:45.913Z,13.80
2023-03-17T16:46:47.756Z,16.60
2023-03-17T16:47:49.584Z,17.80
2023-03-17T16:48:51.158Z,14.60
2023-03-17T16:49:52.873Z,16.20
2023-03-17T16:50:55.860Z,17.80
2023-03-17T16:51:57.312Z,16.80
2023-03-17T16:52:59.591Z,20.10
2023-03-17T16:54:01.080Z,17.00
2023-03-17T16:55:02.592Z,17.90
2023-03-17T16:56:12.917Z,17.10
2023-03-17T16:57:15.009Z,19.20
2023-03-17T16:58:19.817Z,17.60
2023-03-17T16:59:24.846Z,15.90
2023-03-17T17:00:30.657Z,15.00
2023-03-17T17:01:33.739Z,14.30
2023-03-17T17:02:35.799Z,19.50
2023-03-17T17:03:37.819Z,17.30
2023-03-17T17:04:42.430Z,18.50
2023-03-17T17:05:44.590Z,15.50
2023-03-17T17:06:46.110Z,17.40
2023-03-17T17:07:49.247Z,21.50
2023-03-17T17:08:51.525Z,18.80
2023-03-17T17:09:53.050Z,16.00
2023-03-17T17:10:56.636Z,16.00
2023-03-17T17:11:58.138Z,16.20
2023-03-17T17:13:01.379Z,24.40
2023-03-17T17:14:03.319Z,15.50
2023-03-17T17:15:07.857Z,15.30
2023-03-17T17:16:34.772Z,14.60
2023-03-17T17:17:39.346Z,16.50
2023-03-17T17:18:40.786Z,24.80
2023-03-17T17:19:42.305Z,17.90
2023-03-17T17:20:45.573Z,19.40
2023-03-17T17:21:47.877Z,17.50
2023-03-17T17:22:50.408Z,16.40
2023-03-17T17:23:55.534Z,16.60
2023-03-17T17:24:56.977Z,19.60
2023-03-17T17:25:58.674Z,19.10
2023-03-17T17:27:00.381Z,19.10
2023-03-17T17:28:05.699Z,21.20
2023-03-17T17:29:07.281Z,17.80
2023-03-17T17:30:12.696Z,17.70
2023-03-17T17:31:16.736Z,18.40
2023-03-17T17:32:19.274Z,17.70
2023-03-17T17:33:21.525Z,21.00
2023-03-17T17:34:27.699Z,18.70
2023-03-17T17:35:32.795Z,19.60
2023-03-17T17:36:36.826Z,19.40
2023-03-17T17:37:39.182Z,17.90
2023-03-17T17:38:41.020Z,22.90
2023-03-17T17:39:42.813Z,17.30
2023-03-17T17:40:45.182Z,22.70
2023-03-17T17:41:46.970Z,18.80
2023-03-17T17:42:49.121Z,16.30
2023-03-17T17:43:54.377Z,17.60
2023-03-17T17:44:57.887Z,18.70
2023-03-17T17:46:00.471Z,18.80
2023-03-17T17:47:02.654Z,19.50
2023-03-17T17:48:04.639Z,20.70
2023-03-17T17:49:10.311Z,17.50
2023-03-17T17:50:18.171Z,18.20
2023-03-17T17:51:19.851Z,20.70
2023-03-17T17:52:21.568Z,23.90
2023-03-17T17:53:31.044Z,16.90
2023-03-17T17:55:00.481Z,17.70
2023-03-17T17:59:52.647Z,20.50
2023-03-17T18:00:57.338Z,20.50
2023-03-17T18:02:01.180Z,22.00
2023-03-17T18:03:03.875Z,19.80
2023-03-17T18:04:06.940Z,20.10
2023-03-17T18:05:10.522Z,20.00
2023-03-17T18:06:13.062Z,19.60
2023-03-17T18:07:15.167Z,17.60
2023-03-17T18:08:18.674Z,16.90
2023-03-17T18:09:31.847Z,18.90
2023-03-17T18:10:43.414Z,21.70
2023-03-17T18:20:47.666Z,20.90
2023-03-17T18:23:46.897Z,23.50
2023-03-17T18:24:49.334Z,22.50
2023-03-17T18:26:13.495Z,19.60
2023-03-17T18:27:22.741Z,20.50
2023-03-17T18:30:12.940Z,21.70
2023-03-17T18:31:34.086Z,23.00
2023-03-17T18:32:36.616Z,21.70
2023-03-17T18:33:40.927Z,24.50
2023-03-17T18:34:47.198Z,22.30
2023-03-17T18:35:51.545Z,24.20
2023-03-17T18:36:55.128Z,22.60
2023-03-17T18:37:57.365Z,22.60
2023-03-17T18:38:58.848Z,24.40
2023-03-17T18:40:13.481Z,25.60
2023-03-17T18:41:17.194Z,24.20
2023-03-17T18:42:18.803Z,24.90
